Data for 07/30/2006

Time Sea-Level Adjusted Pressure Absolute Pressure Temperature Relative Humidity Dew Point   
(mb) (inHg) (mb) (inHg) (C) (F) (%) (C) (F)
00:05 1012 29.88 841 24.83 28.9 84.1 17 1.8 35.3
00:10 1012 29.88 841 24.83 28.7 83.6 18 2.1 35.7
00:15 1012 29.88 841 24.83 28.6 83.5 17 1.8 35.3
00:20 1012 29.88 841 24.83 28.6 83.4 17 1.8 35.2
00:25 1012 29.88 841 24.83 28.5 83.4 20 3.6 38.5
00:30 1012 29.88 841 24.83 27 80.6 23 4.3 39.8
00:35 1012 29.88 841 24.83 25.8 78.5 24 4.1 39.5
00:40 1012 29.88 841 24.83 25.4 77.7 25 4.4 39.9
00:45 1012 29.88 841 24.83 25.3 77.5 24 3.5 38.2
00:50 1012 29.88 841 24.83 25.8 78.4 22 3 37.4
00:55 1012 29.88 841 24.83 26.3 79.3 22 3.1 37.7
01:00 1012 29.88 842 24.86 26.6 79.8 21 2.6 36.7
01:05 1012 29.88 841 24.83 27.1 80.8 20 2.6 36.7
01:10 1012 29.88 842 24.86 27.1 80.8 21 3.2 37.8
01:15 1012 29.88 842 24.86 26.8 80.2 21 3.2 37.8
01:20 1013 29.91 842 24.86 26.4 79.5 22 3.4 38.2
01:25 1013 29.91 842 24.86 26.1 78.9 23 3.5 38.3
01:30 1013 29.91 842 24.86 25.8 78.4 24 4.2 39.6
01:35 1013 29.91 842 24.86 25.6 78 24 3.8 38.8
01:40 1013 29.91 842 24.86 25.4 77.7 25 4 39.1
01:45 1013 29.91 842 24.86 25.1 77.2 26 4.3 39.7
01:50 1013 29.91 842 24.86 24.9 76.7 26 4.3 39.7
01:55 1013 29.91 842 24.86 24.5 76.2 27 4.6 40.3
02:00 1013 29.91 842 24.86 24.1 75.4 28 4.7 40.4
02:05 1013 29.91 842 24.86 23.8 74.8 29 5 41.1
02:10 1013 29.91 842 24.86 23.3 73.9 31 5.3 41.5
02:15 1013 29.91 842 24.86 22.9 73.2 32 5.7 42.2
02:20 1013 29.91 842 24.86 22.6 72.7 33 5.6 42.1
02:25 1013 29.91 842 24.86 22.4 72.2 33 5.6 42.1
02:30 1013 29.91 842 24.86 22.2 72 34 5.8 42.5
02:35 1013 29.91 842 24.86 22 71.6 35 5.9 42.7
02:40 1013 29.91 842 24.86 21.6 70.9 36 6.3 43.3
02:45 1013 29.91 842 24.86 21.4 70.4 34 5.1 41.3
02:50 1013 29.91 842 24.86 21.7 71.1 33 5.1 41.2
02:55 1013 29.91 842 24.86 22 71.7 33 5.2 41.4
03:00 1013 29.91 843 24.89 22 71.6 32 5 40.9
03:05 1013 29.91 843 24.89 22.3 72.1 32 4.8 40.6
03:10 1013 29.91 843 24.89 22.4 72.2 32 5.1 41.1
03:15 1013 29.91 843 24.89 21.9 71.5 32 4.7 40.4
03:20 1013 29.91 843 24.89 22.1 71.8 31 4.6 40.2
03:25 1013 29.91 842 24.86 22.4 72.3 31 4.6 40.2
03:30 1013 29.91 842 24.86 22.9 73.2 30 4.5 40.1
03:35 1013 29.91 842 24.86 22.8 73.1 31 4.8 40.7
03:40 1013 29.91 843 24.89 22.4 72.4 31 4.8 40.6
03:45 1013 29.91 843 24.89 22 71.6 33 5.1 41.2
03:50 1013 29.91 843 24.89 21.4 70.5 34 5.2 41.4
03:55 1013 29.91 842 24.86 20.9 69.6 34 4.7 40.4
04:00 1013 29.91 842 24.86 21 69.8 35 5.1 41.1
04:05 1013 29.91 842 24.86 20.7 69.3 35 4.8 40.7
04:10 1013 29.91 842 24.86 20.6 69 36 5 41
04:15 1013 29.91 842 24.86 20.5 69 40 6.6 43.9
04:20 1013 29.91 842 24.86 20.5 68.8 37 5.3 41.6
04:25 1013 29.91 842 24.86 19.9 67.8 42 6.6 43.9
04:30 1013 29.91 842 24.86 20 68 36 4.8 40.6
04:35 1013 29.91 842 24.86 20.3 68.5 38 5.6 42.2
04:40 1013 29.91 842 24.86 20.2 68.3 41 6.5 43.7
04:45 1013 29.91 842 24.86 19.9 67.9 41 6.5 43.7
04:50 1013 29.91 842 24.86 18.8 65.8 45 6.9 44.4
04:55 1013 29.91 842 24.86 18.7 65.6 43 5.8 42.5
05:00 1013 29.91 842 24.86 18.5 65.4 42 5.4 41.7
05:05 1013 29.91 842 24.86 19 66.1 38 4.3 39.8
05:10 1013 29.91 842 24.86 19.2 66.5 39 5.2 41.3
05:15 1013 29.91 842 24.86 18.7 65.6 43 6 42.7
05:20 1013 29.91 842 24.86 18.1 64.5 43 5.5 41.9
05:25 1013 29.91 842 24.86 17.9 64.2 43 5.2 41.3
05:30 1013 29.91 842 24.86 18.1 64.5 42 5.1 41.2
05:35 1013 29.91 842 24.86 18.2 64.7 42 5.1 41.2
05:40 1013 29.91 842 24.86 18.2 64.8 41 4.9 40.8
05:45 1013 29.91 842 24.86 18.5 65.3 41 5.1 41.2
05:50 1013 29.91 842 24.86 18.3 64.9 41 5 41.1
05:55 1013 29.91 842 24.86 18.2 64.8 41 4.9 40.9
06:00 1013 29.91 842 24.86 18.4 65 41 4.9 40.8
06:05 1013 29.91 842 24.86 18.4 65 40 4.8 40.7
06:10 1013 29.91 842 24.86 18.3 65 41 4.8 40.7
06:15 1013 29.91 842 24.86 18.4 65.1 40 4.7 40.4
06:20 1013 29.91 842 24.86 18.5 65.4 40 4.9 40.8
06:25 1013 29.91 842 24.86 18.4 65.1 40 4.7 40.4
06:30 1013 29.91 842 24.86 18.5 65.4 40 4.8 40.6
06:35 1013 29.91 842 24.86 18.5 65.3 40 4.8 40.7
06:40 1013 29.91 842 24.86 18.5 65.2 40 4.7 40.5
06:45 1013 29.91 842 24.86 18.5 65.2 40 4.8 40.6
06:50 1013 29.91 842 24.86 18.5 65.3 40 4.7 40.4
06:55 1013 29.91 842 24.86 18.6 65.6 40 4.7 40.5
07:00 1013 29.91 842 24.86 18.8 65.8 40 4.9 40.8
07:05 1013 29.91 842 24.86 18.9 66 40 5.2 41.4
07:10 1013 29.91 842 24.86 18.8 65.8 44 6.4 43.6
07:15 1012 29.88 842 24.86 18.6 65.4 43 5.7 42.3
07:20 1013 29.91 842 24.86 18.6 65.5 42 5.6 42.1
07:25 1013 29.91 842 24.86 18.8 65.8 42 5.8 42.4
07:30 1013 29.91 842 24.86 18.9 66.1 39 5 41
07:35 1012 29.88 842 24.86 19.3 66.7 42 6.2 43.2
07:40 1012 29.88 842 24.86 19.5 67.1 39 5.5 41.8
07:45 1012 29.88 842 24.86 19.5 67.2 46 7.9 46.2
07:50 1012 29.88 842 24.86 19.7 67.4 45 7.4 45.4
07:55 1012 29.88 842 24.86 19.5 67.1 41 6 42.8
08:00 1012 29.88 842 24.86 19.7 67.5 40 5.9 42.7
08:05 1012 29.88 842 24.86 20 68.1 40 6.3 43.3
08:10 1012 29.88 842 24.86 20.1 68.2 41 6.5 43.8
08:15 1012 29.88 842 24.86 20.2 68.4 43 7.4 45.4
08:20 1012 29.88 842 24.86 20.5 68.9 42 7.2 44.9
08:25 1012 29.88 842 24.86 20.8 69.4 41 7.1 44.8
08:30 1012 29.88 842 24.86 21.2 70.2 41 7.6 45.7
08:35 1012 29.88 842 24.86 21.7 71 37 6.7 44
08:40 1012 29.88 841 24.83 22.2 71.9 36 6.6 43.9
08:45 1012 29.88 841 24.83 22.7 72.8 34 6.2 43.2
08:50 1012 29.88 842 24.86 22.9 73.3 34 6.4 43.5
08:55 1012 29.88 842 24.86 23.6 74.5 33 6.6 43.8
09:00 1012 29.88 842 24.86 24.4 75.9 32 6.7 44
09:05 1012 29.88 841 24.83 24.8 76.7 30 6.4 43.6
09:10 1012 29.88 841 24.83 24.9 76.9 30 6.2 43.2
09:15 1012 29.88 841 24.83 24.8 76.6 31 6.9 44.4
09:20 1012 29.88 841 24.83 25.1 77.2 30 6.7 44.1
09:25 1012 29.88 841 24.83 24.9 76.8 30 6.1 43.1
09:30 1012 29.88 841 24.83 25.3 77.6 29 6.1 42.9
09:35 1012 29.88 841 24.83 25 77 30 6.3 43.3
09:40 1012 29.88 841 24.83 25.2 77.4 29 6.2 43.2
09:45 1012 29.88 841 24.83 25.8 78.4 27 5.7 42.3
09:50 1012 29.88 841 24.83 25.7 78.3 28 6.1 43
09:55 1012 29.88 841 24.83 25.2 77.3 28 5.6 42.1
10:00 1012 29.88 841 24.83 25.8 78.4 27 5.8 42.5
10:05 1012 29.88 841 24.83 26.5 79.7 27 6.2 43.2
10:10 1012 29.88 841 24.83 26.8 80.2 27 6.3 43.4
10:15 1012 29.88 841 24.83 27.2 81 25 5.8 42.5
10:20 1012 29.88 841 24.83 26.6 79.8 27 6.3 43.3
10:25 1012 29.88 841 24.83 27.4 81.2 26 6.6 43.9
10:30 1012 29.88 841 24.83 28.1 82.5 25 6.5 43.6
10:35 1012 29.88 841 24.83 28 82.3 25 6.3 43.3
10:40 1012 29.88 841 24.83 28 82.4 25 6.4 43.5
10:45 1012 29.88 841 24.83 27.5 81.6 27 7.2 45
10:50 1012 29.88 841 24.83 27 80.6 25 5.7 42.3
10:55 1012 29.88 841 24.83 27.7 81.9 24 5.6 42.1
11:00 1012 29.88 841 24.83 27.4 81.2 25 5.7 42.2
11:05 1012 29.88 841 24.83 27.3 81.1 25 5.6 42
11:10 1012 29.88 841 24.83 27.4 81.3 24 5.4 41.7
11:15 1012 29.88 841 24.83 27.5 81.5 25 5.8 42.4
11:20 1011 29.85 841 24.83 27.9 82.3 25 6.6 43.9
11:25 1011 29.85 841 24.83 28.8 83.8 23 6.1 42.9
11:30 1011 29.85 841 24.83 29.1 84.4 21 5 41.1
11:35 1011 29.85 841 24.83 30.2 86.4 21 6.2 43.1
11:40 1011 29.85 841 24.83 30.8 87.5 19 4.8 40.7
11:45 1011 29.85 841 24.83 31 87.8 19 5.3 41.6
11:50 1011 29.85 840 24.81 30.4 86.8 17 2.7 36.8
11:55 1011 29.85 840 24.81 31.5 88.6 17 4 39.3
12:00 1011 29.85 840 24.81 31.9 89.4 16 3.6 38.4
12:05 1011 29.85 840 24.81 31.6 88.9 16 2.8 37.1
12:10 1011 29.85 840 24.81 32 89.6 17 4.1 39.4
12:15 1011 29.85 840 24.81 31.7 89 18 4.7 40.5
12:20 1011 29.85 840 24.81 31.1 87.9 18 4.5 40.2
12:25 1011 29.85 840 24.81 30.4 86.8 18 3.8 38.8
12:30 1011 29.85 840 24.81 31 87.8 17 3.3 38
12:35 1011 29.85 840 24.81 31.4 88.5 17 4.2 39.5
12:40 1011 29.85 840 24.81 31.2 88.1 18 4.3 39.7
12:45 1011 29.85 840 24.81 30.3 86.6 19 4.6 40.3
12:50 1011 29.85 840 24.81 29.7 85.4 21 5.4 41.7
12:55 1011 29.85 840 24.81 29.7 85.5 20 4.7 40.4
13:00 1011 29.85 840 24.81 30 86 18 3.6 38.6
13:05 1011 29.85 840 24.81 30.3 86.6 16 2.2 36
13:10 1011 29.85 840 24.81 30.7 87.2 15 1.8 35.3
13:15 1011 29.85 840 24.81 31.1 87.9 15 2.2 36
13:20 1010 29.83 840 24.81 31.5 88.7 15 2.5 36.5
13:25 1010 29.83 840 24.81 31.1 88.1 15 2.1 35.7
13:30 1010 29.83 840 24.81 31.8 89.2 15 2.4 36.2
13:35 1010 29.83 840 24.81 32.1 89.7 15 2.5 36.6
13:40 1010 29.83 840 24.81 32.1 89.8 14 2 35.6
13:45 1010 29.83 839 24.78 32.4 90.2 14 1.9 35.4
13:50 1010 29.83 839 24.78 32.5 90.5 15 2.7 36.9
13:55 1010 29.83 839 24.78 31.7 89 15 1.8 35.3
14:00 1010 29.83 839 24.78 31.4 88.5 14 1.5 34.6
14:05 1010 29.83 839 24.78 31.4 88.6 15 1.8 35.2
14:10 1010 29.83 839 24.78 31.1 88 14 1.2 34.1
14:15 1010 29.83 839 24.78 31.2 88.2 15 1.5 34.7
14:20 1010 29.83 839 24.78 31.2 88.2 14 0.8 33.4
14:25 1010 29.83 839 24.78 32 89.5 13 0.8 33.5
14:30 1010 29.83 839 24.78 32.7 90.9 13 0.9 33.6
14:35 1010 29.83 839 24.78 33.2 91.7 13 1.2 34.1
14:40 1010 29.83 839 24.78 32.7 90.8 14 2.1 35.8
14:45 1010 29.83 839 24.78 32.2 89.9 14 2.1 35.7
14:50 1010 29.83 839 24.78 31.6 88.8 14 1.3 34.3
14:55 1010 29.83 839 24.78 32.6 90.6 13 1.1 34
15:00 1010 29.83 839 24.78 32.9 91.3 13 1.6 34.9
15:05 1010 29.83 839 24.78 33.4 92.2 14 2.6 36.8
15:10 1010 29.83 839 24.78 33.1 91.5 15 3.3 38
15:15 1009 29.8 839 24.78 33 91.4 14 2.8 37
15:20 1009 29.8 839 24.78 32.9 91.2 15 2.8 37
15:25 1009 29.8 839 24.78 33.1 91.5 14 2.8 37.1
15:30 1009 29.8 839 24.78 32.5 90.4 14 2.4 36.2
15:35 1009 29.8 839 24.78 32.1 89.8 14 2.1 35.8
15:40 1009 29.8 839 24.78 32.5 90.4 14 2.1 35.7
15:45 1009 29.8 839 24.78 32.1 89.8 15 2.3 36.2
15:50 1009 29.8 838 24.75 32.5 90.5 15 2.5 36.5
15:55 1009 29.8 839 24.78 32.5 90.5 14 1.7 35
16:00 1009 29.8 839 24.78 32 89.6 15 2.1 35.8
16:05 1009 29.8 839 24.78 31.6 88.9 15 2.6 36.8
16:10 1009 29.8 839 24.78 31.5 88.7 14 1.2 34.2
16:15 1009 29.8 839 24.78 31 87.7 14 1.2 34.1
16:20 1009 29.8 839 24.78 31.3 88.4 15 2.1 35.8
16:25 1009 29.8 839 24.78 31.5 88.7 14 1.4 34.4
16:30 1009 29.8 839 24.78 31.7 89 14 1 33.9
16:35 1009 29.8 839 24.78 31.4 88.6 14 0.8 33.4
16:40 1009 29.8 839 24.78 31.8 89.2 14 1.1 34
16:45 1009 29.8 839 24.78 32.5 90.4 13 0.9 33.6
16:50 1009 29.8 839 24.78 32.3 90.1 13 0.8 33.5
16:55 1009 29.8 839 24.78 31.4 88.5 14 1 33.7
17:00 1009 29.8 838 24.75 31.3 88.3 14 0.8 33.4
17:05 1009 29.8 839 24.78 31 87.7 15 1.4 34.5
17:10 1009 29.8 839 24.78 30.9 87.7 14 0.7 33.2
17:15 1009 29.8 839 24.78 31.1 87.9 15 1.9 35.4
17:20 1009 29.8 838 24.75 31.4 88.6 14 1.2 34.2
17:25 1009 29.8 838 24.75 31.7 89.1 14 0.8 33.5
17:30 1009 29.8 838 24.75 31.4 88.4 13 0 32.1
17:35 1009 29.8 838 24.75 31.3 88.3 13 0.2 32.4
17:40 1009 29.8 838 24.75 31.1 88 13 -0.2 31.7
17:45 1009 29.8 838 24.75 31.1 87.9 13 -0.3 31.5
17:50 1009 29.8 838 24.75 31 87.8 13 -0.1 31.9
17:55 1009 29.8 838 24.75 31.2 88.2 13 -0.1 31.8
18:00 1009 29.8 838 24.75 31.3 88.4 12 -0.6 30.9
18:05 1009 29.8 838 24.75 31.2 88.1 13 -0.3 31.4
18:10 1009 29.8 838 24.75 31.1 88 12 -0.8 30.5
18:15 1009 29.8 838 24.75 30.8 87.5 13 -0.3 31.4
18:20 1009 29.8 838 24.75 30.2 86.3 14 -0.2 31.6
18:25 1009 29.8 838 24.75 30.3 86.6 13 -1.1 30
18:30 1009 29.8 838 24.75 30.5 86.9 13 -1 30.2
18:35 1009 29.8 838 24.75 30.6 87 13 -0.6 30.9
18:40 1009 29.8 838 24.75 30.5 87 13 -0.2 31.6
18:45 1009 29.8 838 24.75 30.8 87.4 15 1.6 34.8
18:50 1009 29.8 838 24.75 30.3 86.6 16 2.5 36.4
18:55 1009 29.8 838 24.75 30.2 86.3 17 2.5 36.5
19:00 1009 29.8 838 24.75 30.4 86.7 16 1.8 35.3
19:05 1009 29.8 839 24.78 30.4 86.6 18 3.9 38.9
19:10 1009 29.8 839 24.78 30.2 86.3 18 3.3 38
19:15 1009 29.8 839 24.78 29.8 85.7 18 3.4 38.1
19:20 1009 29.8 839 24.78 29.4 84.9 19 3.5 38.3
19:25 1010 29.83 839 24.78 28.7 83.6 21 4.2 39.5
19:30 1010 29.83 839 24.78 27.9 82.3 21 3.7 38.7
19:35 1010 29.83 839 24.78 27.4 81.3 20 2.8 37
19:40 1010 29.83 839 24.78 26.8 80.2 21 3.2 37.7
19:45 1010 29.83 839 24.78 26.4 79.5 22 3.3 37.9
19:50 1010 29.83 839 24.78 26 78.9 23 3.3 38
19:55 1010 29.83 839 24.78 25.6 78.1 23 3.3 37.9
20:00 1010 29.83 839 24.78 25.3 77.5 24 3.7 38.6
20:05 1010 29.83 840 24.81 24.8 76.6 25 3.5 38.4
20:10 1010 29.83 840 24.81 24.4 75.9 25 3.6 38.4
20:15 1011 29.85 840 24.81 24.1 75.4 25 3 37.4
20:20 1011 29.85 840 24.81 23.9 75.1 25 3.1 37.6
20:25 1011 29.85 840 24.81 23.8 74.8 25 2.9 37.2
20:30 1011 29.85 840 24.81 23.6 74.5 26 3 37.3
20:35 1011 29.85 840 24.81 23.4 74.1 25 2.7 36.9
20:40 1011 29.85 841 24.83 23.1 73.5 27 3.2 37.8
20:45 1011 29.85 841 24.83 22.8 73 27 3.1 37.6
20:50 1012 29.88 841 24.83 22.6 72.6 28 3.2 37.8
20:55 1012 29.88 841 24.83 22.4 72.3 27 2.9 37.2
21:00 1012 29.88 841 24.83 22.1 71.8 28 2.8 37
21:05 1012 29.88 841 24.83 21.9 71.4 29 3.3 38
21:10 1012 29.88 841 24.83 21.7 71 29 2.8 37.1
21:15 1012 29.88 842 24.86 21.7 71.1 27 2.3 36.1
21:20 1013 29.91 842 24.86 21.7 71.1 27 2.3 36.1
21:25 1013 29.91 842 24.86 21.8 71.2 27 2.3 36.2
21:30 1013 29.91 842 24.86 21.8 71.2 27 2.1 35.8
21:35 1013 29.91 842 24.86 21.8 71.3 26 1.8 35.3
21:40 1013 29.91 842 24.86 21.8 71.3 27 2 35.6
21:45 1013 29.91 842 24.86 21.7 71.1 26 1.7 35.1
21:50 1013 29.91 843 24.89 21.7 71.1 26 1.5 34.6
21:55 1013 29.91 843 24.89 21.7 71.1 26 1.7 35
22:00 1014 29.94 843 24.89 21.6 70.8 28 2.4 36.4
22:05 1014 29.94 843 24.89 21.4 70.5 27 2.1 35.7
22:10 1014 29.94 843 24.89 21.3 70.3 26 1.4 34.5
22:15 1014 29.94 843 24.89 21.2 70.2 27 1.6 34.9
22:20 1014 29.94 843 24.89 21.1 70 26 1.3 34.3
22:25 1014 29.94 843 24.89 21.2 70.1 27 1.6 34.9
22:30 1014 29.94 843 24.89 21.1 69.9 28 1.9 35.3
22:35 1014 29.94 843 24.89 20.7 69.3 29 2.3 36.2
22:40 1014 29.94 843 24.89 20.2 68.4 32 3.2 37.8
22:45 1014 29.94 843 24.89 19.6 67.3 33 3.2 37.8
22:50 1014 29.94 843 24.89 19.1 66.3 34 2.8 37.1
22:55 1014 29.94 843 24.89 18.8 65.8 35 3 37.5
23:00 1014 29.94 843 24.89 18.5 65.3 34 2.6 36.7
23:05 1014 29.94 843 24.89 18.3 65 35 2.7 36.8
23:10 1014 29.94 844 24.92 18.2 64.8 35 2.6 36.7
23:15 1014 29.94 844 24.92 18.1 64.6 36 2.9 37.3
23:20 1014 29.94 844 24.92 17.7 63.8 39 3.6 38.5
23:25 1014 29.94 844 24.92 16.9 62.5 40 3.4 38.1
23:30 1014 29.94 844 24.92 16.2 61.1 42 3.2 37.7
23:35 1014 29.94 844 24.92 16 60.8 41 2.8 37
23:40 1014 29.94 844 24.92 16.1 61 40 2.5 36.4
23:45 1015 29.97 844 24.92 16.5 61.7 38 2.1 35.9
23:50 1015 29.97 844 24.92 16.7 62.1 35 1.4 34.5
23:55 1015 29.97 844 24.92 16.6 61.9 35 1.3 34.4
24:00 1015 29.97 844 24.92 16.6 61.9 34 1 33.8